createdAt,value
2023-05-25T00:01:01.262Z,87.90
2023-05-25T00:03:53.052Z,88.40
2023-05-25T00:06:45.551Z,88.60
2023-05-25T00:09:34.585Z,89.60
2023-05-25T00:12:23.323Z,90.10
2023-05-25T00:15:13.012Z,90.20
2023-05-25T00:18:01.834Z,90.60
2023-05-25T00:20:50.605Z,90.80
2023-05-25T00:23:40.830Z,91.90
2023-05-25T00:26:29.555Z,92.30
2023-05-25T00:29:18.340Z,93.20
2023-05-25T00:32:07.797Z,93.50
2023-05-25T00:34:56.960Z,93.40
2023-05-25T00:37:45.681Z,93.50
2023-05-25T00:40:36.999Z,93.80
2023-05-25T00:43:25.705Z,94.00
2023-05-25T00:46:17.129Z,94.30
2023-05-25T00:49:06.138Z,94.80
2023-05-25T00:51:55.016Z,94.90
2023-05-25T00:54:44.571Z,95.00
2023-05-25T00:57:38.110Z,95.00
2023-05-25T01:00:27.529Z,95.60
2023-05-25T01:03:22.114Z,96.10
2023-05-25T01:06:16.244Z,96.50
2023-05-25T01:09:07.149Z,97.00
2023-05-25T01:11:58.043Z,97.00
2023-05-25T01:14:49.476Z,97.80
2023-05-25T01:17:39.063Z,98.20
2023-05-25T01:20:30.188Z,98.50
2023-05-25T01:23:22.380Z,98.60
2023-05-25T01:26:17.655Z,99.00
2023-05-25T01:29:07.331Z,99.20
2023-05-25T01:31:57.809Z,99.60
2023-05-25T01:34:48.208Z,99.60
2023-05-25T01:37:38.094Z,99.80
2023-05-25T01:40:29.282Z,99.50
2023-05-25T01:43:18.300Z,99.80
2023-05-25T01:46:15.968Z,99.60
2023-05-25T01:49:22.492Z,99.90
2023-05-25T01:52:19.847Z,99.90
2023-05-25T01:55:13.179Z,99.90
2023-05-25T01:58:04.569Z,99.90
2023-05-25T02:00:53.897Z,99.90
2023-05-25T02:03:43.333Z,99.90
2023-05-25T02:06:32.128Z,99.90
2023-05-25T02:09:20.880Z,99.90
2023-05-25T02:12:10.088Z,99.90
2023-05-25T02:15:00.219Z,99.90
2023-05-25T02:17:48.994Z,99.90
2023-05-25T02:20:38.508Z,99.90
2023-05-25T02:23:27.425Z,99.90
2023-05-25T02:26:16.343Z,99.90
2023-05-25T02:29:05.589Z,99.90
2023-05-25T02:31:56.391Z,99.90
2023-05-25T02:34:45.068Z,99.90
2023-05-25T02:37:33.853Z,99.90
2023-05-25T02:40:22.653Z,99.90
2023-05-25T02:43:11.376Z,99.90
2023-05-25T02:46:00.158Z,99.90
2023-05-25T02:48:50.337Z,99.90
2023-05-25T02:51:39.068Z,99.90
2023-05-25T02:54:27.840Z,99.90
2023-05-25T02:57:17.039Z,99.90
2023-05-25T03:00:07.963Z,99.90
2023-05-25T03:02:56.704Z,99.90
2023-05-25T03:05:47.535Z,99.90
2023-05-25T03:08:36.288Z,99.90
2023-05-25T03:11:25.094Z,99.90
2023-05-25T03:14:14.501Z,99.90
2023-05-25T03:17:03.447Z,99.90
2023-05-25T03:19:52.554Z,99.90
2023-05-25T03:22:43.157Z,99.90
2023-05-25T03:25:32.051Z,99.90
2023-05-25T03:28:20.772Z,99.90
2023-05-25T03:31:09.520Z,99.90
2023-05-25T03:33:58.283Z,99.90
2023-05-25T03:36:47.724Z,99.90
2023-05-25T03:39:37.851Z,99.90
2023-05-25T03:42:26.648Z,99.90
2023-05-25T03:45:15.392Z,99.90
2023-05-25T03:48:04.211Z,99.90
2023-05-25T03:50:53.032Z,99.90
2023-05-25T03:53:41.730Z,99.90
2023-05-25T03:56:32.251Z,99.90
2023-05-25T03:59:21.055Z,99.90
2023-05-25T04:02:09.855Z,99.90
2023-05-25T04:04:58.609Z,99.90
2023-05-25T04:07:47.573Z,99.90
2023-05-25T04:10:36.553Z,99.90
2023-05-25T04:13:26.881Z,99.90
2023-05-25T04:16:15.998Z,99.90
2023-05-25T04:19:04.787Z,99.90
2023-05-25T04:21:53.516Z,99.90
2023-05-25T04:24:42.934Z,99.90
2023-05-25T04:27:31.924Z,99.90
2023-05-25T04:30:22.129Z,99.90
2023-05-25T04:33:12.828Z,99.90
2023-05-25T04:36:01.743Z,99.90
2023-05-25T04:38:52.355Z,99.90
2023-05-25T04:41:41.093Z,99.90
2023-05-25T04:44:30.011Z,99.90
2023-05-25T04:47:20.190Z,99.90
2023-05-25T04:50:10.489Z,99.90
2023-05-25T04:52:59.264Z,99.90
2023-05-25T04:55:48.001Z,99.90
2023-05-25T04:58:36.740Z,99.90
2023-05-25T05:01:26.549Z,99.90
2023-05-25T05:04:18.100Z,99.90
2023-05-25T05:07:08.317Z,99.90
2023-05-25T05:09:57.055Z,99.90
2023-05-25T05:12:45.804Z,99.90
2023-05-25T05:15:34.623Z,99.90
2023-05-25T05:18:23.328Z,99.90
2023-05-25T05:21:13.497Z,99.90
2023-05-25T05:24:02.224Z,99.90
2023-05-25T05:26:58.150Z,99.90
2023-05-25T05:29:47.395Z,99.90
2023-05-25T05:32:36.232Z,99.90
2023-05-25T05:35:25.059Z,99.90
2023-05-25T05:38:15.191Z,99.90
2023-05-25T05:41:04.134Z,99.90
2023-05-25T05:43:52.877Z,99.90
2023-05-25T05:46:41.839Z,99.90
2023-05-25T05:49:31.170Z,99.90
2023-05-25T05:52:20.024Z,99.90
2023-05-25T05:55:11.187Z,99.90
2023-05-25T05:58:00.067Z,99.90
2023-05-25T06:00:48.869Z,99.90
2023-05-25T06:03:38.195Z,99.90
2023-05-25T06:06:27.736Z,99.90
2023-05-25T06:09:16.537Z,99.90
2023-05-25T06:12:07.365Z,99.90
2023-05-25T06:14:56.121Z,99.90
2023-05-25T06:17:44.945Z,99.90
2023-05-25T06:20:33.707Z,99.90
2023-05-25T06:23:22.497Z,99.90
2023-05-25T06:26:11.275Z,99.90
2023-05-25T06:29:02.026Z,99.90
2023-05-25T06:31:50.916Z,99.90
2023-05-25T06:34:39.943Z,99.90
2023-05-25T06:37:35.259Z,99.90
2023-05-25T06:40:24.131Z,99.90
2023-05-25T06:43:12.882Z,99.90
2023-05-25T06:46:03.166Z,99.90
2023-05-25T06:48:51.952Z,99.90
2023-05-25T06:51:40.710Z,99.90
2023-05-25T06:54:29.455Z,99.90
2023-05-25T06:57:18.177Z,98.40
2023-05-25T07:00:08.535Z,99.00
2023-05-25T07:02:58.768Z,98.30
2023-05-25T07:05:47.628Z,94.80
2023-05-25T07:08:36.610Z,91.80
2023-05-25T07:11:25.373Z,86.10
2023-05-25T07:14:14.343Z,85.60
2023-05-25T07:17:03.049Z,84.10
2023-05-25T07:19:53.320Z,86.40
2023-05-25T07:22:42.435Z,85.70
2023-05-25T07:25:31.207Z,86.00
2023-05-25T07:28:23.379Z,87.50
2023-05-25T07:31:12.710Z,81.70
2023-05-25T07:34:01.488Z,75.80
2023-05-25T07:36:52.225Z,73.60
2023-05-25T07:39:41.230Z,74.50
2023-05-25T07:42:35.646Z,73.10
2023-05-25T07:45:24.483Z,67.80
2023-05-25T07:48:13.267Z,67.70
2023-05-25T07:51:02.108Z,70.80
2023-05-25T07:53:54.225Z,66.10
2023-05-25T07:56:43.039Z,63.30
2023-05-25T07:59:31.778Z,65.90
2023-05-25T08:02:20.747Z,59.00
2023-05-25T08:05:10.592Z,59.40
2023-05-25T08:07:59.336Z,55.90
2023-05-25T08:10:49.517Z,55.50
2023-05-25T08:13:38.256Z,55.80
2023-05-25T08:16:28.294Z,50.90
2023-05-25T08:19:19.115Z,44.40
2023-05-25T08:22:10.226Z,44.80
2023-05-25T08:24:59.200Z,44.60
2023-05-25T08:27:49.744Z,47.70
2023-05-25T08:30:38.506Z,47.00
2023-05-25T08:33:29.407Z,47.10
2023-05-25T08:36:18.186Z,43.30
2023-05-25T08:39:08.440Z,34.30
2023-05-25T08:41:57.243Z,33.00
2023-05-25T08:44:47.594Z,29.30
2023-05-25T08:47:42.038Z,28.00
2023-05-25T08:50:34.198Z,34.70
2023-05-25T08:53:23.944Z,30.40
2023-05-25T08:56:19.373Z,31.30
2023-05-25T09:06:00.767Z,27.60
2023-05-25T09:45:50.104Z,14.20
2023-05-25T11:44:45.007Z,1.00
2023-05-25T15:36:08.873Z,1.00
2023-05-25T15:38:57.649Z,1.00
2023-05-25T15:41:46.588Z,1.00
2023-05-25T15:44:35.475Z,1.00
2023-05-25T15:47:25.044Z,1.00
2023-05-25T15:50:13.939Z,1.00
2023-05-25T15:53:04.167Z,1.00
2023-05-25T15:55:52.884Z,1.00
2023-05-25T15:58:41.775Z,1.00
2023-05-25T16:01:32.309Z,1.00
2023-05-25T16:04:21.161Z,1.00
2023-05-25T16:07:09.991Z,1.00
2023-05-25T16:10:00.146Z,1.00
2023-05-25T16:12:48.856Z,1.00
2023-05-25T16:15:37.545Z,1.00
2023-05-25T16:18:26.292Z,1.00
2023-05-25T16:21:15.206Z,1.00
2023-05-25T16:24:03.932Z,1.00
2023-05-25T16:26:54.226Z,1.00
2023-05-25T16:29:42.950Z,1.00
2023-05-25T16:32:32.829Z,1.00
2023-05-25T16:35:21.827Z,1.00
2023-05-25T16:38:10.787Z,1.00
2023-05-25T16:40:59.527Z,1.00
2023-05-25T16:43:49.677Z,1.00
2023-05-25T16:46:38.699Z,1.00
2023-05-25T16:49:27.504Z,1.00
2023-05-25T16:52:16.365Z,1.00
2023-05-25T16:55:05.606Z,1.00
2023-05-25T16:57:54.321Z,1.00
2023-05-25T17:00:44.404Z,1.00
2023-05-25T17:03:34.564Z,1.00
2023-05-25T17:06:23.420Z,1.00
2023-05-25T17:09:12.583Z,1.00
2023-05-25T17:12:01.830Z,1.00
2023-05-25T17:14:50.611Z,1.00
2023-05-25T17:17:41.476Z,1.00
2023-05-25T17:20:30.227Z,1.00
2023-05-25T17:23:18.976Z,1.00
2023-05-25T17:26:07.682Z,1.00
2023-05-25T17:28:57.929Z,1.00
2023-05-25T17:31:48.753Z,1.00
2023-05-25T17:34:39.280Z,1.00
2023-05-25T17:37:28.006Z,1.00
2023-05-25T17:40:17.058Z,1.00
2023-05-25T17:43:05.808Z,1.00
2023-05-25T17:45:54.661Z,1.00
2023-05-25T17:48:43.405Z,1.00
2023-05-25T17:51:33.557Z,1.00
2023-05-25T17:54:25.935Z,1.00
2023-05-25T17:57:14.808Z,1.00
2023-05-25T18:00:03.914Z,1.00
2023-05-25T18:02:52.792Z,1.00
2023-05-25T18:05:41.634Z,1.00
2023-05-25T18:08:31.710Z,1.00
2023-05-25T18:11:20.564Z,1.00
2023-05-25T18:14:09.320Z,1.00
2023-05-25T18:16:58.214Z,1.00
2023-05-25T18:19:46.980Z,1.00
2023-05-25T18:22:35.704Z,1.00
2023-05-25T18:25:26.297Z,1.00
2023-05-25T18:28:15.328Z,1.00
2023-05-25T18:31:04.127Z,1.00
2023-05-25T18:33:53.030Z,1.00
2023-05-25T18:36:47.266Z,1.00
2023-05-25T18:39:36.013Z,1.00
2023-05-25T18:42:26.158Z,1.00
2023-05-25T18:45:15.490Z,1.00
2023-05-25T18:48:07.697Z,1.00
2023-05-25T18:50:56.710Z,1.00
2023-05-25T18:53:45.955Z,1.00
2023-05-25T18:56:34.691Z,1.00
2023-05-25T18:59:24.818Z,1.00
2023-05-25T19:02:13.707Z,1.00
2023-05-25T19:05:02.509Z,1.00
2023-05-25T19:07:59.278Z,1.00
2023-05-25T19:10:48.528Z,1.00
2023-05-25T19:13:37.249Z,2.00
2023-05-25T19:16:27.441Z,2.50
2023-05-25T19:19:16.246Z,4.00
2023-05-25T19:22:04.978Z,4.80
2023-05-25T19:25:00.781Z,6.00
2023-05-25T19:27:50.071Z,7.00
